createdAt,value
2018-06-07T00:01:32.925Z,41.92
2018-06-07T00:06:35.114Z,42.02
2018-06-07T00:11:37.293Z,41.91
2018-06-07T00:16:39.471Z,42.63
2018-06-07T00:21:41.776Z,42.39
2018-06-07T00:26:43.913Z,42.17
2018-06-07T00:31:46.144Z,41.84
2018-06-07T00:36:48.340Z,42.58
2018-06-07T00:41:50.540Z,42.07
2018-06-07T00:46:52.765Z,42.52
2018-06-07T00:51:54.953Z,42.82
2018-06-07T00:57:09.249Z,42.54
2018-06-07T01:02:11.429Z,42.09
2018-06-07T01:07:13.618Z,42.31
2018-06-07T01:12:15.789Z,42.10
2018-06-07T01:17:18.000Z,42.48
2018-06-07T01:22:20.175Z,41.80
2018-06-07T01:27:26.932Z,41.24
2018-06-07T01:32:50.052Z,41.87
2018-06-07T01:38:03.855Z,42.59
2018-06-07T01:43:06.040Z,42.55
2018-06-07T01:48:14.913Z,42.11
2018-06-07T01:53:17.075Z,41.85
2018-06-07T01:58:19.251Z,42.37
2018-06-07T02:03:21.426Z,42.16
2018-06-07T02:08:23.572Z,42.69
2018-06-07T02:13:25.712Z,42.12
2018-06-07T02:18:27.906Z,42.63
2018-06-07T02:23:30.119Z,42.40
2018-06-07T02:28:32.275Z,42.65
2018-06-07T02:33:34.477Z,42.41
2018-06-07T02:38:36.639Z,42.31
2018-06-07T02:43:38.780Z,42.22
2018-06-07T02:48:40.905Z,41.78
2018-06-07T02:53:43.047Z,42.12
2018-06-07T02:58:45.187Z,41.98
2018-06-07T03:03:47.332Z,42.33
2018-06-07T03:08:49.503Z,42.61
2018-06-07T03:13:51.695Z,42.18
2018-06-07T03:18:53.864Z,42.24
2018-06-07T03:23:56.010Z,42.50
2018-06-07T03:28:58.201Z,42.44
2018-06-07T03:34:07.087Z,42.28
2018-06-07T03:39:09.644Z,42.12
2018-06-07T03:44:11.804Z,41.95
2018-06-07T03:49:13.959Z,41.45
2018-06-07T03:54:16.187Z,41.48
2018-06-07T03:59:18.363Z,41.68
2018-06-07T04:04:20.530Z,41.37
2018-06-07T04:09:22.717Z,41.73
2018-06-07T04:14:24.836Z,41.88
2018-06-07T04:19:27.086Z,41.51
2018-06-07T04:24:29.273Z,41.89
2018-06-07T04:29:31.399Z,42.16
2018-06-07T04:34:33.589Z,42.03
2018-06-07T04:39:35.766Z,42.18
2018-06-07T04:44:37.928Z,42.00
2018-06-07T04:49:40.078Z,41.65
2018-06-07T04:54:42.277Z,42.31
2018-06-07T04:59:44.463Z,42.50
2018-06-07T05:04:46.851Z,42.50
2018-06-07T05:09:49.037Z,41.51
2018-06-07T05:14:51.221Z,41.29
2018-06-07T05:19:53.383Z,41.60
2018-06-07T05:24:55.626Z,39.90
2018-06-07T05:29:57.728Z,39.95
2018-06-07T05:34:59.898Z,40.58
2018-06-07T05:40:02.094Z,40.70
2018-06-07T05:45:04.465Z,40.56
2018-06-07T05:50:06.627Z,39.09
2018-06-07T05:55:08.820Z,38.60
2018-06-07T06:00:10.999Z,37.59
2018-06-07T06:05:13.155Z,39.67
2018-06-07T06:10:15.359Z,38.14
2018-06-07T06:15:17.540Z,37.92
2018-06-07T06:20:19.727Z,38.05
2018-06-07T06:25:21.903Z,37.46
2018-06-07T06:30:24.095Z,37.03
2018-06-07T06:35:26.295Z,36.82
2018-06-07T06:40:28.486Z,37.67
2018-06-07T06:45:30.673Z,38.13
2018-06-07T06:50:32.867Z,37.29
2018-06-07T06:55:35.048Z,38.29
2018-06-07T07:00:37.229Z,36.97
2018-06-07T07:05:39.486Z,37.36
2018-06-07T07:10:41.655Z,36.80
2018-06-07T07:15:43.877Z,36.21
2018-06-07T07:20:46.084Z,35.40
2018-06-07T07:25:48.334Z,35.49
2018-06-07T07:30:50.513Z,34.39
2018-06-07T07:35:59.350Z,35.30
2018-06-07T07:41:01.711Z,35.73
2018-06-07T07:46:03.904Z,34.81
2018-06-07T07:51:06.059Z,34.84
2018-06-07T07:56:08.228Z,34.04
2018-06-07T08:01:10.444Z,35.11
2018-06-07T08:06:12.613Z,34.61
2018-06-07T08:11:14.779Z,34.40
2018-06-07T08:16:16.934Z,34.15
2018-06-07T08:21:19.143Z,33.09
2018-06-07T08:26:21.319Z,33.40
2018-06-07T08:31:23.508Z,32.45
2018-06-07T08:36:25.731Z,32.11
2018-06-07T08:41:27.886Z,31.04
2018-06-07T08:46:30.072Z,31.41
2018-06-07T08:51:32.245Z,30.25
2018-06-07T08:56:34.491Z,30.14
2018-06-07T09:01:36.694Z,30.92
2018-06-07T09:06:38.888Z,31.79
2018-06-07T09:11:41.097Z,31.36
2018-06-07T09:16:43.326Z,28.79
2018-06-07T09:21:45.519Z,30.33
2018-06-07T09:26:47.704Z,28.94
2018-06-07T09:31:49.904Z,30.28
2018-06-07T09:36:52.098Z,28.55
2018-06-07T09:41:54.278Z,27.29
2018-06-07T09:46:56.504Z,27.89
2018-06-07T09:51:58.653Z,26.21
2018-06-07T09:57:00.873Z,26.99
2018-06-07T10:02:03.040Z,27.58
2018-06-07T10:07:05.265Z,26.49
2018-06-07T10:12:07.466Z,27.02
2018-06-07T10:17:09.686Z,25.35
2018-06-07T10:22:11.891Z,24.96
2018-06-07T10:27:14.074Z,27.23
2018-06-07T10:32:16.281Z,27.08
2018-06-07T10:37:18.512Z,24.64
2018-06-07T10:42:20.697Z,25.84
2018-06-07T10:47:22.902Z,24.44
2018-06-07T10:52:25.084Z,21.96
2018-06-07T10:57:27.257Z,21.66
2018-06-07T11:02:29.451Z,24.17
2018-06-07T11:07:31.615Z,22.23
2018-06-07T11:12:33.805Z,23.66
2018-06-07T11:17:35.949Z,23.01
2018-06-07T11:22:38.136Z,21.87
2018-06-07T11:27:40.312Z,23.53
2018-06-07T11:32:42.538Z,23.53
2018-06-07T11:37:44.743Z,23.47
2018-06-07T11:42:46.917Z,22.46
2018-06-07T11:47:49.151Z,21.45
2018-06-07T11:52:51.380Z,23.44
2018-06-07T11:57:53.617Z,23.58
2018-06-07T12:02:55.790Z,23.19
2018-06-07T12:07:57.984Z,22.77
2018-06-07T12:13:00.165Z,23.22
2018-06-07T12:18:02.365Z,22.59
2018-06-07T12:23:04.590Z,23.21
2018-06-07T12:28:06.758Z,23.17
2018-06-07T12:33:08.960Z,23.68
2018-06-07T12:38:11.150Z,22.93
2018-06-07T12:43:13.314Z,21.53
2018-06-07T12:48:15.548Z,21.98
2018-06-07T12:53:17.735Z,21.01
2018-06-07T12:58:19.925Z,21.78
2018-06-07T13:03:22.177Z,21.24
2018-06-07T13:08:24.377Z,20.69
2018-06-07T13:13:26.572Z,21.13
2018-06-07T13:18:28.743Z,20.21
2018-06-07T13:23:30.955Z,20.50
2018-06-07T13:28:33.141Z,21.29
2018-06-07T13:33:35.309Z,20.29
2018-06-07T13:38:37.530Z,21.62
2018-06-07T13:43:39.671Z,19.78
2018-06-07T13:48:41.847Z,20.68
2018-06-07T13:53:44.020Z,21.15
2018-06-07T13:58:46.247Z,20.00
2018-06-07T14:03:48.449Z,19.30
2018-06-07T14:08:50.669Z,20.72
2018-06-07T14:13:52.862Z,20.96
2018-06-07T14:18:55.048Z,19.18
2018-06-07T14:23:57.267Z,19.42
2018-06-07T14:28:59.512Z,19.49
2018-06-07T14:34:01.695Z,18.68
2018-06-07T14:39:06.296Z,19.45
2018-06-07T14:44:08.451Z,18.13
2018-06-07T14:49:10.619Z,18.47
2018-06-07T14:54:12.811Z,20.31
2018-06-07T14:59:14.994Z,20.59
2018-06-07T15:04:17.163Z,21.12
2018-06-07T15:09:19.346Z,22.30
2018-06-07T15:14:21.598Z,22.17
2018-06-07T15:19:23.722Z,22.41
2018-06-07T15:24:25.995Z,22.53
2018-06-07T15:29:28.217Z,23.30
2018-06-07T15:34:30.401Z,23.72
2018-06-07T15:39:32.573Z,23.33
2018-06-07T15:44:34.928Z,22.89
2018-06-07T15:49:37.148Z,22.79
2018-06-07T15:54:39.340Z,21.12
2018-06-07T15:59:41.523Z,22.63
2018-06-07T16:04:43.687Z,22.82
2018-06-07T16:09:45.866Z,22.49
2018-06-07T16:14:48.051Z,22.02
2018-06-07T16:19:50.235Z,21.73
2018-06-07T16:24:52.456Z,21.29
2018-06-07T16:29:54.630Z,22.54
2018-06-07T16:34:56.815Z,22.30
2018-06-07T16:39:59.009Z,22.68
2018-06-07T16:45:01.228Z,22.82
2018-06-07T16:50:03.467Z,22.95
2018-06-07T16:55:05.947Z,22.13
2018-06-07T17:00:08.193Z,22.96
2018-06-07T17:05:10.412Z,24.03
2018-06-07T17:10:12.597Z,23.58
2018-06-07T17:15:14.846Z,24.05
2018-06-07T17:20:17.063Z,23.69
2018-06-07T17:25:19.279Z,23.72
2018-06-07T17:30:21.456Z,23.08
2018-06-07T17:35:23.678Z,23.53
2018-06-07T17:40:25.899Z,23.29
2018-06-07T17:45:28.107Z,24.42
2018-06-07T17:50:30.322Z,24.26
2018-06-07T17:55:32.685Z,24.48
2018-06-07T18:00:34.853Z,25.46
2018-06-07T18:05:37.082Z,25.86
2018-06-07T18:10:39.327Z,25.95
2018-06-07T18:15:41.534Z,26.03
2018-06-07T18:20:43.825Z,26.78
2018-06-07T18:25:46.003Z,26.84
2018-06-07T18:30:48.310Z,27.40
2018-06-07T18:35:50.568Z,27.02
2018-06-07T18:40:52.769Z,28.30
2018-06-07T18:45:55.019Z,29.24
2018-06-07T18:50:57.232Z,30.59
2018-06-07T18:55:59.488Z,31.03
2018-06-07T19:01:01.763Z,31.42
2018-06-07T19:06:04.014Z,31.95
2018-06-07T19:11:06.528Z,32.11
2018-06-07T19:16:08.706Z,32.84
2018-06-07T19:21:10.963Z,33.69
2018-06-07T19:26:19.002Z,34.49
2018-06-07T19:31:21.311Z,35.48
2018-06-07T19:36:23.580Z,35.27
2018-06-07T19:41:31.558Z,36.44
2018-06-07T19:46:33.817Z,36.54
2018-06-07T19:51:36.076Z,37.09
2018-06-07T19:56:38.352Z,37.13
2018-06-07T20:01:40.610Z,36.93
2018-06-07T20:06:42.893Z,37.75
2018-06-07T20:11:45.137Z,37.83
2018-06-07T20:16:47.415Z,37.66
2018-06-07T20:21:49.679Z,37.54
2018-06-07T20:26:52.011Z,38.30
2018-06-07T20:31:54.923Z,38.18
2018-06-07T20:36:57.116Z,38.83
2018-06-07T20:41:59.508Z,39.08
2018-06-07T20:47:01.746Z,38.72
2018-06-07T20:52:04.001Z,39.74
2018-06-07T20:57:06.255Z,39.92
2018-06-07T21:02:08.522Z,40.66
2018-06-07T21:07:10.736Z,40.61
2018-06-07T21:12:12.958Z,40.92
2018-06-07T21:17:15.208Z,41.97
2018-06-07T21:22:17.427Z,42.11
2018-06-07T21:27:19.702Z,42.18
2018-06-07T21:32:21.948Z,42.87
2018-06-07T21:37:24.125Z,43.08
2018-06-07T21:42:26.332Z,44.27
2018-06-07T21:47:28.537Z,44.68
2018-06-07T21:52:30.724Z,45.75
2018-06-07T21:57:32.946Z,46.14
2018-06-07T22:02:35.262Z,46.19
2018-06-07T22:07:37.489Z,46.99
2018-06-07T22:12:39.709Z,47.27
2018-06-07T22:17:41.930Z,47.72
2018-06-07T22:22:45.525Z,48.11
2018-06-07T22:27:47.845Z,48.62
2018-06-07T22:32:50.052Z,49.23
2018-06-07T22:37:52.278Z,49.00
2018-06-07T22:42:54.448Z,48.77
2018-06-07T22:47:57.001Z,49.64
2018-06-07T22:52:59.434Z,49.77
2018-06-07T22:58:01.636Z,49.68
2018-06-07T23:03:04.380Z,50.03
2018-06-07T23:08:06.569Z,50.62
2018-06-07T23:13:08.739Z,50.88
2018-06-07T23:18:17.803Z,51.78
2018-06-07T23:23:19.967Z,51.84
2018-06-07T23:28:28.901Z,52.43
2018-06-07T23:33:31.081Z,52.83
2018-06-07T23:38:33.303Z,53.75
2018-06-07T23:43:35.521Z,53.98
2018-06-07T23:48:37.688Z,54.29
2018-06-07T23:53:40.194Z,55.91
2018-06-07T23:58:42.362Z,56.05
